Naples, FL

3:42 PM EST en Noviembre 23, 2014 (GMT -0500)
KFLNAPLE31 | Change Station
CLOSE
Current Station
Estación meteorológica personal
Location: Naples, FL
Altura: 20 ft
Estaciones meteorológicas cercanas

Alt 20 ft 26.16 °N, 81.78 °W | Updated 14 minutes ago

Overcast
Nublado
83.6 ° F
Sensación térmica 92 ° F
N
18.0
Viento Variable Viento desde SSE
Gusts 27.0 mph

Hoy
Alta -- | Baja -- ° F
--% Posibilidad de precipitaciones
Ayer
Alta -- | Baja -- ° F
Precip. -- pul
6:51 AM 5:35 PM
Luna nueva, 2% visible
Presión 29.89 pul
Visibilidad 10.0 Millas
Nubes Muy nublado 2500 ft
Nublado 3300 ft
Índice de calor 92 ° F
Punto de rocío 76 ° F
Humedad 77%
Precipitaciones 0.00 pul
Espesor de la nieve No disponible.
UV 1 de una escala de 12
Polen 3.90 de una escala de 12
Calidad del aire No disponible.
Flu Activity No disponible.
METAR KAPF 231953Z 15016G23KT 10SM BKN025 OVC033 29/22 A2989 RMK AO2 PK WND 15026/1916 SLP122 T02890222

More Conditions Fewer Conditions

Presión 29.89 pul
Visibilidad 10.0 Millas
Nubes Muy nublado 2500 ft
Nublado 3300 ft
Índice de calor 92 ° F
Punto de rocío 76 ° F
Humedad 77%
Precipitaciones 0.00 pul
Espesor de la nieve No disponible.
UV 1 de una escala de 12
Polen 3.90 de una escala de 12
Calidad del aire No disponible.
Flu Activity No disponible.
METAR KAPF 231953Z 15016G23KT 10SM BKN025 OVC033 29/22 A2989 RMK AO2 PK WND 15026/1916 SLP122 T02890222

More Conditions Fewer Conditions

10-Day Weather Forecast

Almanac

Astronomía

Nov. 23, 2014 Salida Puesta
Hora real
Crepúsculo civil
Crepúsculo náutico
Crepúsculo astronómico
Luna
Horas de luz
Horas de luz
Tomorrow will be .
, % of the Moon is Illuminated

Extremos de hoy

Máximos del estado Bajos del estado

Community

WunderPhotos

Upload Photos

1,773,171 ¡fotos cargadas!

WunderBlogs® & News

Nearby

Calidad del aire

  Calidad del aire Índice AQ Contaminante
Not available.

Grosos de nieve

Estación Profundido Altura

Actividad de terremotos

Ciudad Distance Mag. Tiempo y dato
Magnitud mínima muestra es 2,5.

Temperaturas de aguas costeras

Lugar Temperatura

Estaciones meteorológicas cercanas